createdAt,value
2022-09-30T00:01:55.454Z,11.70
2022-09-30T00:04:25.532Z,16.48
2022-09-30T00:06:55.745Z,16.58
2022-09-30T00:09:24.119Z,13.70
2022-09-30T00:11:52.829Z,11.73
2022-09-30T00:14:23.243Z,10.93
2022-09-30T00:16:51.979Z,14.57
2022-09-30T00:19:20.546Z,13.15
2022-09-30T00:21:48.963Z,12.63
2022-09-30T00:24:18.561Z,10.20
2022-09-30T00:26:46.929Z,13.35
2022-09-30T00:29:15.200Z,11.43
2022-09-30T00:31:43.584Z,11.80
2022-09-30T00:34:12.229Z,12.32
2022-09-30T00:36:44.753Z,12.30
2022-09-30T00:39:16.293Z,12.20
2022-09-30T00:41:46.868Z,11.50
2022-09-30T00:44:51.027Z,13.20
2022-09-30T00:47:31.166Z,11.43
2022-09-30T00:50:02.656Z,17.35
2022-09-30T00:52:31.738Z,12.73
2022-09-30T00:55:02.255Z,9.90
2022-09-30T00:57:32.345Z,13.80
2022-09-30T01:00:01.196Z,11.43
2022-09-30T01:02:30.736Z,12.15
2022-09-30T01:04:59.127Z,10.20
2022-09-30T01:07:28.327Z,10.88
2022-09-30T01:09:57.984Z,8.82
2022-09-30T01:12:27.800Z,10.75
2022-09-30T01:14:58.897Z,10.20
2022-09-30T01:17:37.955Z,10.70
2022-09-30T01:20:42.975Z,11.10
2022-09-30T01:23:43.962Z,10.27
2022-09-30T01:26:43.417Z,11.90
2022-09-30T01:29:52.283Z,14.45
2022-09-30T01:32:35.239Z,10.98
2022-09-30T01:35:15.859Z,10.30
2022-09-30T01:37:51.048Z,12.43
2022-09-30T01:40:26.100Z,10.98
2022-09-30T01:43:01.914Z,9.70
2022-09-30T01:45:36.384Z,8.95
2022-09-30T01:48:13.623Z,11.18
2022-09-30T01:50:49.733Z,14.18
2022-09-30T01:53:26.295Z,10.00
2022-09-30T01:56:01.240Z,11.02
2022-09-30T01:58:43.523Z,10.10
2022-09-30T02:01:19.306Z,10.00
2022-09-30T02:03:52.484Z,10.82
2022-09-30T02:06:27.210Z,11.25
2022-09-30T02:08:59.928Z,10.05
2022-09-30T02:11:30.363Z,12.27
2022-09-30T02:14:04.125Z,10.68
2022-09-30T02:16:41.502Z,8.95
2022-09-30T02:19:18.795Z,10.38
2022-09-30T02:21:52.446Z,9.13
2022-09-30T02:24:25.320Z,12.80
2022-09-30T02:26:58.047Z,12.95
2022-09-30T02:29:31.484Z,14.65
2022-09-30T02:32:03.543Z,11.15
2022-09-30T02:34:37.640Z,14.70
2022-09-30T02:37:10.814Z,10.27
2022-09-30T02:39:43.915Z,9.30
2022-09-30T02:42:16.623Z,12.10
2022-09-30T02:44:45.030Z,10.55
2022-09-30T02:47:18.574Z,8.52
2022-09-30T02:49:55.027Z,10.07
2022-09-30T02:52:29.163Z,11.23
2022-09-30T02:55:12.440Z,9.13
2022-09-30T02:57:49.787Z,9.73
2022-09-30T03:00:18.352Z,10.13
2022-09-30T03:02:46.775Z,11.13
2022-09-30T03:05:17.774Z,12.50
2022-09-30T03:07:46.301Z,11.40
2022-09-30T03:10:15.882Z,11.00
2022-09-30T03:13:05.332Z,11.07
2022-09-30T03:15:46.138Z,8.40
2022-09-30T03:18:45.635Z,10.60
2022-09-30T03:21:32.805Z,11.85
2022-09-30T03:24:36.489Z,9.98
2022-09-30T03:27:15.110Z,11.48
2022-09-30T03:30:23.474Z,9.52
2022-09-30T03:33:05.620Z,12.82
2022-09-30T03:35:44.834Z,9.80
2022-09-30T03:38:24.057Z,9.63
2022-09-30T03:41:00.336Z,10.80
2022-09-30T03:43:34.367Z,10.27
2022-09-30T03:46:07.806Z,9.35
2022-09-30T03:48:38.332Z,9.18
2022-09-30T03:51:08.648Z,10.05
2022-09-30T03:53:41.346Z,7.80
2022-09-30T03:56:09.618Z,10.43
2022-09-30T03:58:41.693Z,10.95
2022-09-30T04:01:13.154Z,8.10
2022-09-30T04:03:41.632Z,8.25
2022-09-30T04:06:12.966Z,9.23
2022-09-30T04:08:42.679Z,9.82
2022-09-30T04:11:10.979Z,10.15
2022-09-30T04:13:39.260Z,9.48
2022-09-30T04:16:09.147Z,10.27
2022-09-30T04:18:38.461Z,7.90
2022-09-30T04:21:08.081Z,9.45
2022-09-30T04:23:37.560Z,11.52
2022-09-30T04:26:08.848Z,11.18
2022-09-30T04:28:37.674Z,13.25
2022-09-30T04:31:07.616Z,12.68
2022-09-30T04:33:36.126Z,16.50
2022-09-30T04:36:04.620Z,17.60
2022-09-30T04:38:33.775Z,16.63
2022-09-30T04:41:05.417Z,15.85
2022-09-30T04:43:35.697Z,14.07
2022-09-30T04:46:04.384Z,15.02
2022-09-30T04:48:32.518Z,25.83
2022-09-30T04:51:01.158Z,14.25
2022-09-30T04:53:30.328Z,18.73
2022-09-30T04:56:02.518Z,15.68
2022-09-30T04:58:36.793Z,15.05
2022-09-30T05:01:09.165Z,17.15
2022-09-30T05:03:37.797Z,13.20
2022-09-30T05:06:06.960Z,12.57
2022-09-30T05:08:35.683Z,18.10
2022-09-30T05:11:08.455Z,12.60
2022-09-30T05:13:39.663Z,13.32
2022-09-30T05:16:10.869Z,14.48
2022-09-30T05:18:41.373Z,12.13
2022-09-30T05:21:09.888Z,14.43
2022-09-30T05:23:38.399Z,15.48
2022-09-30T05:26:11.772Z,13.05
2022-09-30T05:28:41.135Z,16.13
2022-09-30T05:31:12.332Z,14.13
2022-09-30T05:33:42.092Z,19.00
2022-09-30T05:36:14.381Z,15.00
2022-09-30T05:38:43.221Z,13.27
2022-09-30T05:41:14.501Z,11.02
2022-09-30T05:43:45.284Z,18.70
2022-09-30T05:46:15.959Z,11.85
2022-09-30T05:48:44.174Z,12.63
2022-09-30T05:51:12.802Z,10.43
2022-09-30T05:53:41.351Z,11.75
2022-09-30T05:56:11.108Z,11.80
2022-09-30T05:58:40.670Z,13.35
2022-09-30T06:01:13.716Z,12.13
2022-09-30T06:03:44.911Z,13.75
2022-09-30T06:06:13.806Z,13.48
2022-09-30T06:08:43.776Z,14.77
2022-09-30T06:11:13.594Z,14.80
2022-09-30T06:13:42.785Z,12.25
2022-09-30T06:16:12.912Z,15.60
2022-09-30T06:18:41.831Z,17.58
2022-09-30T06:21:13.484Z,14.20
2022-09-30T06:23:42.054Z,17.60
2022-09-30T06:26:13.507Z,16.83
2022-09-30T06:28:42.623Z,24.20
2022-09-30T06:31:11.542Z,14.88
2022-09-30T06:33:39.981Z,12.02
2022-09-30T06:36:08.144Z,13.48
2022-09-30T06:38:39.795Z,13.68
2022-09-30T06:41:08.445Z,12.75
2022-09-30T06:43:42.334Z,15.35
2022-09-30T06:46:30.328Z,14.45
2022-09-30T06:49:13.274Z,22.08
2022-09-30T06:51:51.231Z,19.90
2022-09-30T06:54:21.902Z,16.58
2022-09-30T06:56:52.537Z,15.77
2022-09-30T06:59:20.804Z,15.60
2022-09-30T07:01:49.010Z,20.88
2022-09-30T07:04:17.784Z,21.48
2022-09-30T07:06:47.158Z,14.85
2022-09-30T07:09:15.713Z,18.65
2022-09-30T07:11:45.330Z,15.07
2022-09-30T07:14:14.594Z,16.75
2022-09-30T07:16:44.849Z,15.27
2022-09-30T07:19:14.642Z,17.30
2022-09-30T07:21:42.747Z,14.38
2022-09-30T07:24:11.667Z,20.00
2022-09-30T07:26:40.309Z,18.25
2022-09-30T07:29:15.811Z,17.00
2022-09-30T07:31:44.187Z,15.63
2022-09-30T07:34:13.083Z,16.40
2022-09-30T07:36:43.162Z,17.58
2022-09-30T07:39:12.206Z,15.73
2022-09-30T07:41:45.231Z,16.33
2022-09-30T07:44:16.486Z,17.95
2022-09-30T07:46:45.755Z,18.52
2022-09-30T07:49:20.721Z,17.70
2022-09-30T07:51:49.536Z,16.63
2022-09-30T07:54:20.128Z,15.10
2022-09-30T07:59:56.730Z,18.95
2022-09-30T08:02:25.764Z,16.38
2022-09-30T08:04:53.895Z,15.55
2022-09-30T08:07:21.972Z,20.13
2022-09-30T08:09:50.329Z,19.02
2022-09-30T08:12:23.145Z,17.52
2022-09-30T08:14:51.390Z,16.95
2022-09-30T08:17:20.970Z,15.68
2022-09-30T08:19:49.253Z,16.10
2022-09-30T08:22:17.579Z,16.38
2022-09-30T08:24:54.829Z,16.17
2022-09-30T08:27:23.051Z,12.23
2022-09-30T08:29:55.074Z,15.73
2022-09-30T08:32:25.654Z,12.50
2022-09-30T08:34:53.694Z,15.77
2022-09-30T08:37:21.865Z,12.05
2022-09-30T08:40:20.498Z,14.95
2022-09-30T08:43:03.877Z,16.13
2022-09-30T08:45:43.570Z,13.98
2022-09-30T08:48:30.898Z,13.25
2022-09-30T08:51:09.362Z,17.25
2022-09-30T08:53:41.132Z,12.60
2022-09-30T08:56:14.262Z,14.93
2022-09-30T08:58:46.552Z,12.25
2022-09-30T09:01:21.019Z,11.85
2022-09-30T09:03:56.111Z,13.57
2022-09-30T09:06:31.237Z,14.38
2022-09-30T09:09:32.933Z,12.52
2022-09-30T09:12:09.974Z,12.32
2022-09-30T09:14:57.060Z,10.80
2022-09-30T09:17:38.564Z,14.95
2022-09-30T09:20:14.955Z,11.48
2022-09-30T09:22:44.212Z,14.85
2022-09-30T09:25:15.800Z,15.45
2022-09-30T09:27:51.071Z,14.18
2022-09-30T09:30:22.107Z,11.93
2022-09-30T09:32:56.158Z,13.68
2022-09-30T09:35:44.813Z,10.25
2022-09-30T09:38:26.213Z,12.77
2022-09-30T09:41:14.120Z,11.00
2022-09-30T09:43:52.829Z,9.85
2022-09-30T09:46:26.674Z,10.73
2022-09-30T09:49:28.858Z,9.68
2022-09-30T09:52:16.983Z,12.70
2022-09-30T09:54:52.462Z,10.48
2022-09-30T09:57:25.725Z,9.25
2022-09-30T09:59:58.699Z,8.27
2022-09-30T10:02:28.871Z,9.98
2022-09-30T10:05:03.964Z,9.32
2022-09-30T10:07:35.032Z,9.13
2022-09-30T10:10:23.803Z,10.32
2022-09-30T10:12:52.778Z,8.70
2022-09-30T10:15:23.895Z,10.45
2022-09-30T10:17:55.554Z,10.00
2022-09-30T10:20:33.359Z,8.13
2022-09-30T10:23:10.160Z,8.10
2022-09-30T10:25:41.055Z,8.38
2022-09-30T10:28:23.894Z,7.03
2022-09-30T10:30:58.440Z,7.78
2022-09-30T10:33:31.423Z,8.13
2022-09-30T10:36:10.765Z,6.20
2022-09-30T10:38:49.702Z,5.00
2022-09-30T10:41:25.519Z,5.97
2022-09-30T10:43:56.458Z,8.15
2022-09-30T10:46:28.752Z,9.35
2022-09-30T10:48:59.132Z,7.75
2022-09-30T10:51:31.066Z,8.52
2022-09-30T10:54:01.324Z,8.40
2022-09-30T10:56:39.042Z,5.93
2022-09-30T10:59:16.717Z,5.00
2022-09-30T11:01:52.594Z,6.93
2022-09-30T11:04:28.493Z,6.45
2022-09-30T11:07:03.054Z,8.18
2022-09-30T11:09:37.789Z,7.03
2022-09-30T11:12:15.908Z,8.95
2022-09-30T11:14:50.016Z,5.88
2022-09-30T11:17:29.319Z,5.47
2022-09-30T11:20:09.369Z,8.13
2022-09-30T11:22:44.653Z,6.15
2022-09-30T11:25:17.266Z,6.72
2022-09-30T11:27:59.322Z,6.28
2022-09-30T11:30:34.053Z,5.80
2022-09-30T11:33:20.388Z,6.78
2022-09-30T11:35:57.436Z,6.60
2022-09-30T11:38:45.794Z,5.63
2022-09-30T11:41:24.733Z,5.43
2022-09-30T11:44:06.521Z,5.75
2022-09-30T11:47:05.210Z,5.93
2022-09-30T11:50:08.827Z,4.90
2022-09-30T11:52:43.818Z,5.50
2022-09-30T11:55:41.783Z,6.28
2022-09-30T11:58:39.436Z,4.30
2022-09-30T12:01:21.875Z,4.15
2022-09-30T12:03:59.261Z,5.43
2022-09-30T12:06:32.837Z,9.40
2022-09-30T12:09:09.557Z,7.15
2022-09-30T12:11:44.458Z,5.90
2022-09-30T12:14:20.626Z,4.70
2022-09-30T12:16:51.300Z,6.30
2022-09-30T12:19:26.187Z,6.30
2022-09-30T12:22:07.404Z,4.80
2022-09-30T12:24:39.401Z,5.22
2022-09-30T12:27:17.046Z,5.70
2022-09-30T12:30:13.361Z,4.82
2022-09-30T12:33:11.735Z,4.80
2022-09-30T12:36:10.289Z,5.22
2022-09-30T12:38:56.642Z,5.88
2022-09-30T12:41:41.589Z,8.43
2022-09-30T12:44:42.808Z,7.78
2022-09-30T12:47:26.219Z,7.22
2022-09-30T12:49:57.776Z,4.82
2022-09-30T12:52:27.388Z,6.30
2022-09-30T12:54:59.661Z,5.05
2022-09-30T12:57:34.023Z,6.03
2022-09-30T13:00:07.314Z,5.03
2022-09-30T13:02:40.310Z,4.40
2022-09-30T13:05:51.248Z,6.53
2022-09-30T13:08:26.074Z,5.32
2022-09-30T13:10:59.302Z,5.50
2022-09-30T13:13:30.871Z,4.93
2022-09-30T13:16:03.728Z,5.30
2022-09-30T13:19:02.588Z,5.10
2022-09-30T13:21:32.075Z,4.82
2022-09-30T13:24:00.625Z,5.65
2022-09-30T13:26:38.659Z,6.78
2022-09-30T13:29:43.304Z,6.20
2022-09-30T13:32:11.722Z,4.90
2022-09-30T13:34:56.728Z,8.07
2022-09-30T13:37:37.825Z,5.50
2022-09-30T13:40:15.677Z,5.03
2022-09-30T13:42:56.465Z,4.95
2022-09-30T13:45:34.073Z,4.65
2022-09-30T13:48:31.092Z,4.65
2022-09-30T13:51:05.218Z,5.43
2022-09-30T13:53:39.211Z,3.60
2022-09-30T13:56:11.275Z,3.92
2022-09-30T13:59:13.342Z,5.13
2022-09-30T14:01:55.227Z,5.90
2022-09-30T14:04:46.000Z,4.05
2022-09-30T14:07:22.135Z,4.20
2022-09-30T14:10:29.275Z,4.65
2022-09-30T14:13:15.694Z,7.07
2022-09-30T14:16:02.975Z,4.05
2022-09-30T14:18:49.478Z,9.70
2022-09-30T14:21:36.807Z,4.32
2022-09-30T14:24:24.647Z,5.32
2022-09-30T14:27:21.909Z,4.70
2022-09-30T14:30:05.805Z,3.60
2022-09-30T14:32:41.108Z,5.22
2022-09-30T14:35:13.544Z,4.07
2022-09-30T14:37:45.874Z,3.97
2022-09-30T14:40:18.792Z,3.60
2022-09-30T14:42:49.540Z,5.15
2022-09-30T14:45:26.826Z,3.45
2022-09-30T14:47:59.712Z,3.47
2022-09-30T14:50:31.291Z,3.50
2022-09-30T14:53:00.658Z,3.25
2022-09-30T14:55:34.307Z,3.95
2022-09-30T14:58:28.560Z,3.75
2022-09-30T15:01:04.854Z,4.18
2022-09-30T15:03:38.162Z,5.88
2022-09-30T15:06:07.892Z,4.40
2022-09-30T15:08:36.830Z,3.85
2022-09-30T15:11:06.533Z,3.80
2022-09-30T15:13:36.207Z,3.40
2022-09-30T15:16:04.330Z,4.88
2022-09-30T15:18:36.425Z,4.07
2022-09-30T15:21:12.252Z,3.50
2022-09-30T15:23:43.475Z,3.30
2022-09-30T15:26:15.411Z,3.28
2022-09-30T15:28:43.861Z,4.40
2022-09-30T15:31:22.527Z,3.33
2022-09-30T15:33:51.073Z,3.85
2022-09-30T15:36:20.023Z,3.67
2022-09-30T15:38:51.309Z,5.22
2022-09-30T15:41:20.872Z,4.70
2022-09-30T15:43:51.802Z,3.55
2022-09-30T15:46:29.020Z,6.07
2022-09-30T15:49:00.062Z,5.25
2022-09-30T15:51:34.734Z,3.30
2022-09-30T15:54:24.345Z,3.40
2022-09-30T15:56:53.842Z,4.28
2022-09-30T15:59:22.675Z,4.95
2022-09-30T16:01:53.275Z,4.60
2022-09-30T16:04:26.368Z,6.35
2022-09-30T16:06:57.056Z,4.93
2022-09-30T16:09:30.847Z,7.00
2022-09-30T16:12:08.857Z,8.88
2022-09-30T16:14:45.141Z,7.75
2022-09-30T16:17:18.889Z,7.15
2022-09-30T16:19:52.899Z,7.28
2022-09-30T16:22:50.443Z,8.68
2022-09-30T16:25:22.843Z,6.10
2022-09-30T16:27:57.811Z,5.90
2022-09-30T16:30:27.486Z,6.25
2022-09-30T16:32:59.383Z,5.53
2022-09-30T16:35:48.678Z,6.55
2022-09-30T16:38:18.946Z,6.10
2022-09-30T16:40:47.269Z,6.40
2022-09-30T16:43:34.653Z,4.57
2022-09-30T16:46:03.623Z,5.75
2022-09-30T16:48:32.018Z,4.70
2022-09-30T16:51:04.878Z,3.88
2022-09-30T16:53:33.322Z,3.58
2022-09-30T16:56:01.731Z,3.50
2022-09-30T16:58:31.571Z,4.80
2022-09-30T17:01:01.369Z,4.15
2022-09-30T17:03:29.437Z,3.65
2022-09-30T17:05:57.995Z,3.63
2022-09-30T17:08:25.937Z,4.65
2022-09-30T17:10:54.165Z,4.32
2022-09-30T17:13:22.291Z,3.67
2022-09-30T17:15:52.373Z,4.45
2022-09-30T17:18:40.406Z,4.22
2022-09-30T17:21:08.460Z,5.13
2022-09-30T17:23:36.862Z,5.75
2022-09-30T17:26:05.587Z,7.03
2022-09-30T17:28:34.451Z,6.32
2022-09-30T17:31:04.106Z,5.78
2022-09-30T17:33:33.679Z,5.60
2022-09-30T17:36:06.150Z,5.80
2022-09-30T17:38:35.091Z,5.10
2022-09-30T17:41:23.413Z,6.28
2022-09-30T17:43:51.538Z,6.85
2022-09-30T17:46:23.190Z,5.90
2022-09-30T17:48:55.799Z,5.25
2022-09-30T17:51:39.915Z,6.30
2022-09-30T17:54:08.777Z,5.63
2022-09-30T17:56:38.950Z,6.35
2022-09-30T17:59:09.636Z,7.10
2022-09-30T18:01:40.472Z,10.40
2022-09-30T18:04:08.750Z,8.93
2022-09-30T18:06:36.886Z,6.78
2022-09-30T18:09:07.665Z,6.45
2022-09-30T18:11:42.098Z,7.68
2022-09-30T18:14:12.481Z,9.88
2022-09-30T18:16:42.133Z,9.73
2022-09-30T18:19:10.329Z,7.63
2022-09-30T18:21:39.244Z,9.68
2022-09-30T18:24:08.920Z,11.43
2022-09-30T18:26:37.170Z,9.68
2022-09-30T18:29:06.263Z,10.52
2022-09-30T18:31:37.292Z,10.45
2022-09-30T18:34:06.320Z,10.50
2022-09-30T18:36:35.287Z,13.50
2022-09-30T18:39:03.681Z,10.73
2022-09-30T18:41:35.555Z,10.15
2022-09-30T18:44:04.178Z,12.15
2022-09-30T18:46:33.130Z,13.43
2022-09-30T18:49:01.638Z,13.32
2022-09-30T18:51:31.352Z,11.68
2022-09-30T18:54:02.061Z,10.77
2022-09-30T18:56:34.118Z,12.27
2022-09-30T18:59:05.445Z,13.68
2022-09-30T19:01:36.585Z,11.85
2022-09-30T19:04:06.031Z,13.63
2022-09-30T19:06:35.736Z,12.38
2022-09-30T19:09:06.693Z,16.20
2022-09-30T19:11:37.309Z,13.07
2022-09-30T19:14:13.509Z,13.27
2022-09-30T19:16:42.308Z,12.82
2022-09-30T19:19:24.720Z,13.38
2022-09-30T19:21:53.811Z,12.27
2022-09-30T19:24:26.740Z,18.50
2022-09-30T19:26:57.411Z,12.50
2022-09-30T19:29:28.789Z,12.32
2022-09-30T19:32:00.983Z,12.60
2022-09-30T19:34:32.761Z,13.93
2022-09-30T19:37:01.158Z,13.07
2022-09-30T19:39:43.221Z,12.50
2022-09-30T19:42:19.222Z,15.27
2022-09-30T19:44:47.688Z,16.25
2022-09-30T19:47:17.043Z,16.15
2022-09-30T19:49:45.531Z,14.00
2022-09-30T19:52:21.930Z,14.27
2022-09-30T19:54:52.008Z,12.45
2022-09-30T19:57:23.199Z,15.00
2022-09-30T19:59:54.589Z,16.98
2022-09-30T20:02:24.334Z,14.27
2022-09-30T20:04:56.814Z,14.05
2022-09-30T20:07:25.534Z,14.30
2022-09-30T20:09:54.563Z,14.75
2022-09-30T20:12:24.763Z,16.90
2022-09-30T20:15:10.338Z,19.88
2022-09-30T20:17:40.008Z,15.23
2022-09-30T20:20:27.296Z,13.93
2022-09-30T20:23:00.336Z,14.60
2022-09-30T20:25:30.134Z,13.95
2022-09-30T20:28:00.014Z,14.45
2022-09-30T20:30:29.798Z,13.68
2022-09-30T20:32:58.079Z,13.50
2022-09-30T20:35:26.692Z,15.05
2022-09-30T20:37:54.946Z,15.45
2022-09-30T20:40:23.494Z,15.73
2022-09-30T20:42:52.471Z,14.30
2022-09-30T20:45:22.055Z,15.63
2022-09-30T20:47:50.378Z,13.05
2022-09-30T20:50:34.913Z,17.55
2022-09-30T20:53:06.213Z,13.65
2022-09-30T20:55:39.146Z,14.77
2022-09-30T20:58:09.247Z,13.00
2022-09-30T21:00:42.989Z,14.55
2022-09-30T21:03:15.496Z,16.25
2022-09-30T21:05:52.659Z,13.90
2022-09-30T21:08:21.601Z,17.80
2022-09-30T21:10:49.771Z,17.52
2022-09-30T21:13:18.065Z,16.10
2022-09-30T21:15:47.505Z,15.23
2022-09-30T21:18:15.704Z,13.68
2022-09-30T21:20:44.713Z,16.20
2022-09-30T21:23:16.042Z,14.45
2022-09-30T21:25:46.668Z,13.63
2022-09-30T21:28:14.823Z,12.75
2022-09-30T21:30:42.947Z,12.75
2022-09-30T21:33:12.364Z,14.60
2022-09-30T21:35:40.562Z,12.50
2022-09-30T21:38:08.671Z,13.70
2022-09-30T21:40:36.829Z,14.18
2022-09-30T21:43:04.791Z,12.98
2022-09-30T21:45:33.045Z,13.00
2022-09-30T21:48:22.880Z,13.80
2022-09-30T21:50:50.899Z,14.40
2022-09-30T21:53:19.038Z,15.32
2022-09-30T21:55:48.374Z,15.88
2022-09-30T21:58:16.844Z,17.30
2022-09-30T22:00:45.003Z,14.95
2022-09-30T22:03:37.913Z,14.10
2022-09-30T22:06:08.342Z,14.85
2022-09-30T22:08:40.221Z,13.13
2022-09-30T22:11:11.289Z,12.27
2022-09-30T22:13:40.747Z,12.32
2022-09-30T22:16:09.648Z,14.68
2022-09-30T22:18:39.131Z,13.43
2022-09-30T22:21:10.067Z,11.48
2022-09-30T22:23:38.797Z,10.63
2022-09-30T22:26:08.669Z,12.10
2022-09-30T22:28:37.528Z,9.85
2022-09-30T22:31:14.260Z,8.40
2022-09-30T22:34:04.894Z,9.98
2022-09-30T22:36:51.028Z,8.48
2022-09-30T22:39:19.669Z,7.35
2022-09-30T22:41:48.767Z,8.48
2022-09-30T22:44:17.922Z,8.80
2022-09-30T22:46:46.533Z,10.93
2022-09-30T22:49:16.443Z,9.20
2022-09-30T22:51:44.960Z,8.15
2022-09-30T22:54:13.304Z,9.95
2022-09-30T22:56:41.617Z,10.05
2022-09-30T22:59:12.086Z,9.52
2022-09-30T23:01:40.586Z,9.27
2022-09-30T23:04:09.506Z,10.07
2022-09-30T23:06:39.217Z,9.27
2022-09-30T23:09:09.574Z,10.20
2022-09-30T23:11:39.310Z,8.95
2022-09-30T23:14:07.390Z,9.52
2022-09-30T23:16:35.494Z,12.70
2022-09-30T23:19:16.043Z,9.82
2022-09-30T23:21:45.449Z,10.77
2022-09-30T23:24:14.500Z,8.90
2022-09-30T23:26:43.465Z,8.25
2022-09-30T23:29:13.545Z,8.95
2022-09-30T23:31:42.082Z,8.52
2022-09-30T23:34:10.430Z,7.35
2022-09-30T23:36:39.014Z,8.75
2022-09-30T23:39:14.557Z,8.32
2022-09-30T23:41:43.589Z,9.25
2022-09-30T23:44:11.737Z,10.00
2022-09-30T23:47:02.318Z,8.23
2022-09-30T23:49:35.805Z,8.57
2022-09-30T23:52:04.977Z,10.77
2022-09-30T23:54:35.784Z,10.07
2022-09-30T23:57:04.199Z,9.55
2022-09-30T23:59:33.230Z,9.13
